AVA9820 SKCG-SKBG
Flight info
| Callsign | AVA9820 |
|---|---|
| Flight time | 0h 44m |
| Altitude | 35000 |
| Route | CTG2B CTG DCT UGREB UW10 MGN W35 IVRIK IVRIK1B |
| Aircraft | A320/M-SDE3FGHIRWY/LB1 |
Departure
| Time | 2026-05-04 13:45 |
|---|---|
| Airport | Rafael Nuñez International Airport (SKCG) |
Arrival
| Time | 2026-05-04 14:29 |
|---|---|
| Airport | Palonegro Airport (SKBG) |
| Time | Latitude | Longitude | Altitude | Speed | Heading |
|---|---|---|---|---|---|
| 2026-05-04 13:35 | 10.44643 | -75.51561 | 14 ft | 0 kts | 272° |
| 2026-05-04 13:36 | 10.44642 | -75.51558 | 14 ft | 3 kts | 272° |
| 2026-05-04 13:36 | 10.44642 | -75.51535 | 14 ft | 3 kts | 272° |
| 2026-05-04 13:37 | 10.44641 | -75.51512 | 14 ft | 3 kts | 272° |
| 2026-05-04 13:37 | 10.44640 | -75.51492 | 14 ft | 3 kts | 284° |
| 2026-05-04 13:37 | 10.44631 | -75.51474 | 14 ft | 3 kts | 324° |
| 2026-05-04 13:37 | 10.44618 | -75.51467 | 14 ft | 3 kts | 345° |
| 2026-05-04 13:38 | 10.44589 | -75.51464 | 14 ft | 3 kts | 2° |
| 2026-05-04 13:38 | 10.44571 | -75.51465 | 15 ft | 1 kts | 2° |
| 2026-05-04 13:38 | 10.44593 | -75.51465 | 14 ft | 3 kts | 358° |
| 2026-05-04 13:38 | 10.44614 | -75.51461 | 14 ft | 3 kts | 24° |
| 2026-05-04 13:39 | 10.44626 | -75.51444 | 14 ft | 3 kts | 66° |
| 2026-05-04 13:39 | 10.44628 | -75.51422 | 14 ft | 3 kts | 90° |
| 2026-05-04 13:39 | 10.44626 | -75.51402 | 15 ft | 3 kts | 96° |
| 2026-05-04 13:39 | 10.44631 | -75.51383 | 16 ft | 2 kts | 65° |
| 2026-05-04 13:40 | 10.44631 | -75.51382 | 15 ft | 0 kts | 65° |
| 2026-05-04 13:42 | 10.44636 | -75.51372 | 15 ft | 5 kts | 66° |
| 2026-05-04 13:42 | 10.44645 | -75.51309 | 16 ft | 12 kts | 80° |
| 2026-05-04 13:42 | 10.44700 | -75.51271 | 17 ft | 9 kts | 1° |
| 2026-05-04 13:43 | 10.44777 | -75.51269 | 17 ft | 15 kts | 2° |
| 2026-05-04 13:43 | 10.44908 | -75.51264 | 18 ft | 22 kts | 2° |
| 2026-05-04 13:43 | 10.45075 | -75.51256 | 17 ft | 26 kts | 2° |
| 2026-05-04 13:43 | 10.45234 | -75.51256 | 16 ft | 15 kts | 345° |
| 2026-05-04 13:44 | 10.45307 | -75.51282 | 17 ft | 11 kts | 349° |
| 2026-05-04 13:44 | 10.45337 | -75.51260 | 16 ft | 5 kts | 91° |
| 2026-05-04 13:44 | 10.45282 | -75.51248 | 16 ft | 20 kts | 181° |
| 2026-05-04 13:44 | 10.44861 | -75.51266 | 18 ft | 100 kts | 182° |
| 2026-05-04 13:45 | 10.43936 | -75.51302 | 55 ft | 158 kts | 181° |
| 2026-05-04 13:45 | 10.42832 | -75.51324 | 807 ft | 161 kts | 178° |
| 2026-05-04 13:45 | 10.41663 | -75.51271 | 1364 ft | 180 kts | 175° |
| 2026-05-04 13:45 | 10.40328 | -75.51177 | 1773 ft | 206 kts | 175° |
| 2026-05-04 13:46 | 10.38829 | -75.51078 | 2288 ft | 231 kts | 175° |
| 2026-05-04 13:46 | 10.37188 | -75.50646 | 2878 ft | 254 kts | 149° |
| 2026-05-04 13:46 | 10.35700 | -75.49607 | 3832 ft | 263 kts | 144° |
| 2026-05-04 13:46 | 10.34206 | -75.48547 | 4884 ft | 268 kts | 144° |
| 2026-05-04 13:47 | 10.32661 | -75.47464 | 5917 ft | 272 kts | 144° |
| 2026-05-04 13:47 | 10.31091 | -75.46366 | 6896 ft | 277 kts | 144° |
| 2026-05-04 13:47 | 10.29491 | -75.45249 | 7831 ft | 281 kts | 144° |
| 2026-05-04 13:47 | 10.27866 | -75.44116 | 8735 ft | 286 kts | 144° |
| 2026-05-04 13:48 | 10.26214 | -75.42965 | 9606 ft | 289 kts | 144° |
| 2026-05-04 13:48 | 10.24539 | -75.41792 | 10345 ft | 300 kts | 144° |
| 2026-05-04 13:48 | 10.22756 | -75.40538 | 10645 ft | 324 kts | 144° |
| 2026-05-04 13:48 | 10.20860 | -75.39206 | 11219 ft | 337 kts | 144° |
| 2026-05-04 13:49 | 10.18914 | -75.37845 | 11975 ft | 342 kts | 144° |
| 2026-05-04 13:49 | 10.16943 | -75.36465 | 12752 ft | 346 kts | 144° |
| 2026-05-04 13:49 | 10.14949 | -75.35065 | 13531 ft | 350 kts | 144° |
| 2026-05-04 13:49 | 10.12938 | -75.33650 | 14296 ft | 354 kts | 144° |
| 2026-05-04 13:50 | 10.10902 | -75.32220 | 15028 ft | 357 kts | 144° |
| 2026-05-04 13:50 | 10.08848 | -75.30782 | 15757 ft | 360 kts | 144° |
| 2026-05-04 13:50 | 10.06774 | -75.29332 | 16462 ft | 364 kts | 144° |
| 2026-05-04 13:50 | 10.04681 | -75.27870 | 17137 ft | 367 kts | 144° |
| 2026-05-04 13:51 | 10.02570 | -75.26392 | 17815 ft | 370 kts | 144° |
| 2026-05-04 13:51 | 10.00445 | -75.24904 | 18465 ft | 373 kts | 144° |
| 2026-05-04 13:51 | 9.98327 | -75.23421 | 19057 ft | 377 kts | 144° |
| 2026-05-04 13:51 | 9.96154 | -75.21899 | 19644 ft | 382 kts | 144° |
| 2026-05-04 13:52 | 9.91731 | -75.18805 | 20740 ft | 391 kts | 145° |
| 2026-05-04 13:52 | 9.89478 | -75.17229 | 21275 ft | 396 kts | 145° |
| 2026-05-04 13:52 | 9.87196 | -75.15633 | 21802 ft | 401 kts | 145° |
| 2026-05-04 13:53 | 9.84888 | -75.14020 | 22322 ft | 405 kts | 145° |
| 2026-05-04 13:53 | 9.82555 | -75.12389 | 22826 ft | 409 kts | 145° |
| 2026-05-04 13:53 | 9.80198 | -75.10741 | 23328 ft | 414 kts | 145° |
| 2026-05-04 13:54 | 9.75412 | -75.07397 | 24256 ft | 422 kts | 145° |
| 2026-05-04 13:54 | 9.72986 | -75.05701 | 24705 ft | 425 kts | 145° |
| 2026-05-04 13:54 | 9.68081 | -75.02270 | 25633 ft | 431 kts | 145° |
| 2026-05-04 13:55 | 9.65610 | -75.00542 | 26079 ft | 433 kts | 145° |
| 2026-05-04 13:55 | 9.60617 | -74.97059 | 26903 ft | 438 kts | 146° |
| 2026-05-04 13:55 | 9.58099 | -74.95304 | 27295 ft | 441 kts | 146° |
| 2026-05-04 13:56 | 9.55570 | -74.93542 | 27680 ft | 442 kts | 146° |
| 2026-05-04 13:56 | 9.53027 | -74.91769 | 28055 ft | 445 kts | 146° |
| 2026-05-04 13:56 | 9.47942 | -74.88221 | 28770 ft | 449 kts | 146° |
| 2026-05-04 13:57 | 9.45361 | -74.86420 | 29122 ft | 451 kts | 146° |
| 2026-05-04 13:57 | 9.42774 | -74.84612 | 29454 ft | 453 kts | 146° |
| 2026-05-04 13:58 | 9.34936 | -74.79139 | 30414 ft | 459 kts | 146° |
| 2026-05-04 13:58 | 9.29643 | -74.75461 | 31018 ft | 463 kts | 146° |
| 2026-05-04 13:58 | 9.26982 | -74.73612 | 31297 ft | 465 kts | 146° |
| 2026-05-04 13:59 | 9.24314 | -74.71756 | 31580 ft | 466 kts | 146° |
| 2026-05-04 13:59 | 9.21636 | -74.69889 | 31853 ft | 468 kts | 146° |
| 2026-05-04 13:59 | 9.16287 | -74.66161 | 32601 ft | 465 kts | 146° |
| 2026-05-04 14:00 | 9.13627 | -74.64308 | 32964 ft | 464 kts | 146° |
| 2026-05-04 14:00 | 9.08318 | -74.60615 | 33732 ft | 462 kts | 146° |
| 2026-05-04 14:00 | 9.05677 | -74.58778 | 34117 ft | 460 kts | 146° |
| 2026-05-04 14:01 | 9.03043 | -74.56945 | 34491 ft | 459 kts | 146° |
| 2026-05-04 14:01 | 9.00414 | -74.55118 | 34817 ft | 459 kts | 146° |
| 2026-05-04 14:01 | 8.95204 | -74.51497 | 34925 ft | 448 kts | 146° |
| 2026-05-04 14:02 | 8.92644 | -74.49719 | 34924 ft | 446 kts | 146° |
| 2026-05-04 14:02 | 8.87541 | -74.46179 | 34935 ft | 444 kts | 146° |
| 2026-05-04 14:03 | 8.82442 | -74.42641 | 34932 ft | 445 kts | 146° |
| 2026-05-04 14:03 | 8.77382 | -74.39122 | 34935 ft | 445 kts | 146° |
| 2026-05-04 14:04 | 8.69740 | -74.33814 | 34932 ft | 444 kts | 146° |
| 2026-05-04 14:04 | 8.64645 | -74.30276 | 34933 ft | 444 kts | 146° |
| 2026-05-04 14:05 | 8.57013 | -74.24982 | 34932 ft | 444 kts | 146° |
| 2026-05-04 14:06 | 8.51920 | -74.21449 | 34938 ft | 444 kts | 146° |
| 2026-05-04 14:06 | 8.46825 | -74.17919 | 34948 ft | 444 kts | 146° |
| 2026-05-04 14:07 | 8.42554 | -74.14964 | 34967 ft | 444 kts | 146° |
| 2026-05-04 14:07 | 8.37457 | -74.11432 | 34982 ft | 444 kts | 146° |
| 2026-05-04 14:08 | 8.32361 | -74.07903 | 34997 ft | 444 kts | 146° |
| 2026-05-04 14:08 | 8.27263 | -74.04375 | 34996 ft | 444 kts | 146° |
| 2026-05-04 14:09 | 8.19618 | -73.99077 | 35004 ft | 444 kts | 146° |
| 2026-05-04 14:10 | 8.11972 | -73.93794 | 35001 ft | 444 kts | 146° |
| 2026-05-04 14:10 | 8.06870 | -73.90265 | 34844 ft | 446 kts | 146° |
| 2026-05-04 14:10 | 8.04290 | -73.88478 | 33541 ft | 457 kts | 146° |
| 2026-05-04 14:11 | 8.01620 | -73.86638 | 32241 ft | 469 kts | 146° |
| 2026-05-04 14:11 | 7.96349 | -73.83028 | 31277 ft | 451 kts | 146° |
| 2026-05-04 14:11 | 7.93801 | -73.81285 | 30652 ft | 446 kts | 146° |
| 2026-05-04 14:12 | 7.91245 | -73.79533 | 30042 ft | 442 kts | 146° |
| 2026-05-04 14:12 | 7.88708 | -73.77795 | 29438 ft | 439 kts | 146° |
| 2026-05-04 14:12 | 7.83703 | -73.74366 | 28259 ft | 431 kts | 146° |
| 2026-05-04 14:13 | 7.81238 | -73.72673 | 27687 ft | 427 kts | 146° |
| 2026-05-04 14:13 | 7.78797 | -73.70994 | 27122 ft | 423 kts | 146° |
| 2026-05-04 14:13 | 7.76381 | -73.69333 | 26578 ft | 418 kts | 146° |
| 2026-05-04 14:13 | 7.73989 | -73.67694 | 26040 ft | 414 kts | 146° |
| 2026-05-04 14:14 | 7.71624 | -73.66076 | 25520 ft | 409 kts | 146° |
| 2026-05-04 14:14 | 7.66964 | -73.62895 | 24484 ft | 400 kts | 145° |
| 2026-05-04 14:14 | 7.64666 | -73.61330 | 23950 ft | 396 kts | 145° |
| 2026-05-04 14:15 | 7.60143 | -73.58236 | 22896 ft | 390 kts | 144° |
| 2026-05-04 14:15 | 7.55697 | -73.55184 | 21839 ft | 384 kts | 144° |
| 2026-05-04 14:16 | 7.51310 | -73.52178 | 20772 ft | 379 kts | 144° |
| 2026-05-04 14:16 | 7.49138 | -73.50691 | 20240 ft | 376 kts | 144° |
| 2026-05-04 14:17 | 7.44840 | -73.47756 | 19190 ft | 370 kts | 144° |
| 2026-05-04 14:17 | 7.42718 | -73.46306 | 18673 ft | 367 kts | 144° |
| 2026-05-04 14:17 | 7.38513 | -73.43426 | 17522 ft | 365 kts | 143° |
| 2026-05-04 14:18 | 7.36424 | -73.41994 | 17032 ft | 361 kts | 144° |
| 2026-05-04 14:18 | 7.32294 | -73.39191 | 16053 ft | 355 kts | 147° |
| 2026-05-04 14:19 | 7.27905 | -73.37044 | 15107 ft | 350 kts | 153° |
| 2026-05-04 14:19 | 7.25706 | -73.36005 | 14641 ft | 348 kts | 153° |
| 2026-05-04 14:19 | 7.23526 | -73.34977 | 14163 ft | 345 kts | 153° |
| 2026-05-04 14:19 | 7.21392 | -73.33970 | 13964 ft | 331 kts | 153° |
| 2026-05-04 14:20 | 7.19350 | -73.33006 | 13879 ft | 318 kts | 153° |
| 2026-05-04 14:20 | 7.17351 | -73.32057 | 13426 ft | 318 kts | 153° |
| 2026-05-04 14:20 | 7.15345 | -73.31103 | 12965 ft | 319 kts | 153° |
| 2026-05-04 14:21 | 7.11356 | -73.29211 | 12074 ft | 309 kts | 154° |
| 2026-05-04 14:21 | 7.09457 | -73.28315 | 11650 ft | 295 kts | 154° |
| 2026-05-04 14:21 | 7.07638 | -73.27457 | 11233 ft | 283 kts | 153° |
| 2026-05-04 14:21 | 7.05886 | -73.26648 | 10968 ft | 271 kts | 156° |
| 2026-05-04 14:22 | 7.04129 | -73.25933 | 10492 ft | 277 kts | 158° |
| 2026-05-04 14:22 | 7.02309 | -73.25251 | 10030 ft | 281 kts | 159° |
| 2026-05-04 14:22 | 7.00467 | -73.24578 | 9594 ft | 281 kts | 159° |
| 2026-05-04 14:22 | 6.98657 | -73.23918 | 9192 ft | 272 kts | 158° |
| 2026-05-04 14:23 | 6.95256 | -73.22658 | 8443 ft | 250 kts | 156° |
| 2026-05-04 14:23 | 6.93871 | -73.21720 | 8074 ft | 237 kts | 124° |
| 2026-05-04 14:23 | 6.93344 | -73.20238 | 7874 ft | 222 kts | 89° |
| 2026-05-04 14:24 | 6.93739 | -73.18806 | 7675 ft | 208 kts | 59° |
| 2026-05-04 14:24 | 6.94398 | -73.17520 | 7452 ft | 206 kts | 68° |
| 2026-05-04 14:24 | 6.94889 | -73.16193 | 7181 ft | 201 kts | 71° |
| 2026-05-04 14:24 | 6.95330 | -73.14890 | 6958 ft | 190 kts | 71° |
| 2026-05-04 14:25 | 6.95747 | -73.13691 | 6953 ft | 179 kts | 66° |
| 2026-05-04 14:25 | 6.97789 | -73.12890 | 6665 ft | 177 kts | 337° |
| 2026-05-04 14:25 | 6.98945 | -73.13378 | 6504 ft | 182 kts | 343° |
| 2026-05-04 14:26 | 7.00117 | -73.13786 | 6294 ft | 173 kts | 342° |
| 2026-05-04 14:26 | 7.01212 | -73.14184 | 6078 ft | 160 kts | 342° |
| 2026-05-04 14:26 | 7.02222 | -73.14559 | 5900 ft | 150 kts | 342° |
| 2026-05-04 14:26 | 7.03178 | -73.14917 | 5666 ft | 145 kts | 341° |
| 2026-05-04 14:27 | 7.04118 | -73.15269 | 5498 ft | 144 kts | 342° |
| 2026-05-04 14:27 | 7.05050 | -73.15619 | 5301 ft | 143 kts | 341° |
| 2026-05-04 14:27 | 7.05977 | -73.15966 | 5126 ft | 142 kts | 340° |
| 2026-05-04 14:27 | 7.06897 | -73.16313 | 4916 ft | 141 kts | 340° |
| 2026-05-04 14:28 | 7.07819 | -73.16659 | 4719 ft | 141 kts | 340° |
| 2026-05-04 14:28 | 7.08736 | -73.17004 | 4526 ft | 140 kts | 340° |
| 2026-05-04 14:28 | 7.09650 | -73.17348 | 4336 ft | 140 kts | 340° |
| 2026-05-04 14:28 | 7.10560 | -73.17688 | 4141 ft | 140 kts | 340° |
| 2026-05-04 14:29 | 7.12336 | -73.18359 | 3892 ft | 116 kts | 340° |
| 2026-05-04 14:29 | 7.13074 | -73.18637 | 3911 ft | 32 kts | 339° |
| 2026-05-04 14:30 | 7.13171 | -73.18673 | 3911 ft | 10 kts | 345° |
| 2026-05-04 14:30 | 7.13204 | -73.18653 | 3911 ft | 4 kts | 85° |
| 2026-05-04 14:30 | 7.13185 | -73.18600 | 3911 ft | 7 kts | 117° |
| 2026-05-04 14:31 | 7.13143 | -73.18560 | 3911 ft | 8 kts | 153° |
| 2026-05-04 14:31 | 7.13026 | -73.18514 | 3911 ft | 8 kts | 159° |
| 2026-05-04 14:32 | 7.12903 | -73.18467 | 3906 ft | 15 kts | 159° |
| 2026-05-04 14:32 | 7.12793 | -73.18426 | 3906 ft | 17 kts | 159° |
| 2026-05-04 14:32 | 7.12742 | -73.18370 | 3906 ft | 9 kts | 95° |
| 2026-05-04 14:32 | 7.12731 | -73.18309 | 3901 ft | 9 kts | 112° |
| 2026-05-04 14:33 | 7.12700 | -73.18257 | 3901 ft | 8 kts | 109° |
| 2026-05-04 14:33 | 7.12699 | -73.18208 | 3904 ft | 6 kts | 59° |
| 2026-05-04 14:33 | 7.12729 | -73.18198 | 3902 ft | 2 kts | 9° |
| 2026-05-04 14:33 | 7.12737 | -73.18197 | 3902 ft | 1 kts | 10° |
| 2026-05-04 14:34 | 7.12741 | -73.18196 | 3905 ft | 0 kts | 10° |